sensor_id;sensor_type;location;lat;lon;timestamp;pressure;altitude;pressure_sealevel;temperature;humidity
19594;BME280;9944;48.240;16.478;2022-07-15T00:01:50;99663.28;;;22.94;63.08
19594;BME280;9944;48.240;16.478;2022-07-15T00:05:53;99650.03;;;22.91;63.55
19594;BME280;9944;48.240;16.478;2022-07-15T00:09:56;99662.72;;;22.88;63.75
19594;BME280;9944;48.240;16.478;2022-07-15T00:14:18;99637.69;;;22.87;64.11
19594;BME280;9944;48.240;16.478;2022-07-15T00:18:22;99645.09;;;22.82;64.15
19594;BME280;9944;48.240;16.478;2022-07-15T00:22:26;99661.50;;;22.76;64.10
19594;BME280;9944;48.240;16.478;2022-07-15T00:26:29;99639.16;;;22.75;63.89
19594;BME280;9944;48.240;16.478;2022-07-15T00:30:39;99652.50;;;22.77;63.96
19594;BME280;9944;48.240;16.478;2022-07-15T00:34:44;99681.09;;;22.78;63.89
19594;BME280;9944;48.240;16.478;2022-07-15T00:38:47;99738.22;;;22.80;63.59
19594;BME280;9944;48.240;16.478;2022-07-15T00:42:52;99782.97;;;22.80;63.04
19594;BME280;9944;48.240;16.478;2022-07-15T00:46:56;99795.66;;;22.76;62.69
19594;BME280;9944;48.240;16.478;2022-07-15T00:51:03;99812.81;;;22.72;63.06
19594;BME280;9944;48.240;16.478;2022-07-15T00:55:08;99809.53;;;22.65;63.72
19594;BME280;9944;48.240;16.478;2022-07-15T00:59:13;99784.00;;;22.56;64.62
19594;BME280;9944;48.240;16.478;2022-07-15T01:03:17;99714.72;;;22.47;65.05
19594;BME280;9944;48.240;16.478;2022-07-15T01:07:22;99718.75;;;22.37;65.42
19594;BME280;9944;48.240;16.478;2022-07-15T01:11:26;99683.22;;;22.32;66.68
19594;BME280;9944;48.240;16.478;2022-07-15T01:15:33;99664.69;;;22.27;67.05
19594;BME280;9944;48.240;16.478;2022-07-15T01:19:37;99683.50;;;22.26;67.66
19594;BME280;9944;48.240;16.478;2022-07-15T01:23:43;99718.41;;;22.24;67.86
19594;BME280;9944;48.240;16.478;2022-07-15T01:28:09;99747.56;;;22.11;68.09
19594;BME280;9944;48.240;16.478;2022-07-15T01:32:13;99742.88;;;21.96;68.38
19594;BME280;9944;48.240;16.478;2022-07-15T01:36:16;99754.00;;;21.87;68.48
19594;BME280;9944;48.240;16.478;2022-07-15T01:40:28;99758.66;;;21.81;69.16
19594;BME280;9944;48.240;16.478;2022-07-15T01:44:32;99752.69;;;21.75;69.48
19594;BME280;9944;48.240;16.478;2022-07-15T01:48:35;99725.44;;;21.65;69.91
19594;BME280;9944;48.240;16.478;2022-07-15T01:53:28;99750.75;;;21.58;70.00
19594;BME280;9944;48.240;16.478;2022-07-15T01:57:34;99774.03;;;21.56;70.40
19594;BME280;9944;48.240;16.478;2022-07-15T02:01:39;99792.09;;;21.51;71.08
19594;BME280;9944;48.240;16.478;2022-07-15T02:05:47;99816.53;;;21.41;70.92
19594;BME280;9944;48.240;16.478;2022-07-15T02:09:52;99808.06;;;21.30;70.89
19594;BME280;9944;48.240;16.478;2022-07-15T02:13:56;99818.19;;;21.22;71.20
19594;BME280;9944;48.240;16.478;2022-07-15T02:18:03;99816.06;;;21.08;71.17
19594;BME280;9944;48.240;16.478;2022-07-15T02:22:06;99810.28;;;20.95;71.01
19594;BME280;9944;48.240;16.478;2022-07-15T02:26:09;99802.50;;;20.89;71.49
19594;BME280;9944;48.240;16.478;2022-07-15T02:30:14;99799.94;;;20.86;71.54
19594;BME280;9944;48.240;16.478;2022-07-15T02:34:17;99790.38;;;20.80;71.63
19594;BME280;9944;48.240;16.478;2022-07-15T02:38:20;99815.34;;;20.79;71.96
19594;BME280;9944;48.240;16.478;2022-07-15T02:42:26;99822.63;;;20.76;72.07
19594;BME280;9944;48.240;16.478;2022-07-15T02:46:31;99831.44;;;20.78;72.35
19594;BME280;9944;48.240;16.478;2022-07-15T02:50:35;99825.19;;;20.79;72.36
19594;BME280;9944;48.240;16.478;2022-07-15T02:54:39;99837.84;;;20.74;72.29
19594;BME280;9944;48.240;16.478;2022-07-15T02:58:42;99845.19;;;20.68;72.45
19594;BME280;9944;48.240;16.478;2022-07-15T03:02:48;99838.06;;;20.67;72.45
19594;BME280;9944;48.240;16.478;2022-07-15T03:06:52;99839.16;;;20.62;72.48
19594;BME280;9944;48.240;16.478;2022-07-15T03:10:56;99834.91;;;20.56;72.43
19594;BME280;9944;48.240;16.478;2022-07-15T03:15:00;99826.06;;;20.54;72.25
19594;BME280;9944;48.240;16.478;2022-07-15T03:19:06;99827.03;;;20.51;71.87
19594;BME280;9944;48.240;16.478;2022-07-15T03:23:12;99834.34;;;20.46;72.24
19594;BME280;9944;48.240;16.478;2022-07-15T03:27:17;99831.03;;;20.40;72.64
19594;BME280;9944;48.240;16.478;2022-07-15T03:31:20;99833.81;;;20.37;72.51
19594;BME280;9944;48.240;16.478;2022-07-15T03:35:25;99834.88;;;20.31;72.77
19594;BME280;9944;48.240;16.478;2022-07-15T03:39:28;99829.66;;;20.28;72.70
19594;BME280;9944;48.240;16.478;2022-07-15T03:43:32;99836.91;;;20.24;72.66
19594;BME280;9944;48.240;16.478;2022-07-15T03:47:35;99839.59;;;20.24;72.78
19594;BME280;9944;48.240;16.478;2022-07-15T03:51:43;99852.91;;;20.26;72.85
19594;BME280;9944;48.240;16.478;2022-07-15T03:55:47;99850.28;;;20.24;72.94
19594;BME280;9944;48.240;16.478;2022-07-15T03:59:52;99858.34;;;20.23;72.89
19594;BME280;9944;48.240;16.478;2022-07-15T04:03:56;99857.44;;;20.22;73.01
19594;BME280;9944;48.240;16.478;2022-07-15T04:08:01;99847.72;;;20.21;72.80
19594;BME280;9944;48.240;16.478;2022-07-15T04:12:05;99858.59;;;20.15;72.94
19594;BME280;9944;48.240;16.478;2022-07-15T04:16:13;99847.94;;;20.13;73.17
19594;BME280;9944;48.240;16.478;2022-07-15T04:20:17;99848.19;;;20.07;73.29
19594;BME280;9944;48.240;16.478;2022-07-15T04:24:25;99842.94;;;20.04;73.43
19594;BME280;9944;48.240;16.478;2022-07-15T04:28:28;99848.38;;;20.01;73.40
19594;BME280;9944;48.240;16.478;2022-07-15T04:32:32;99853.66;;;20.03;73.33
19594;BME280;9944;48.240;16.478;2022-07-15T04:36:35;99862.41;;;20.08;73.82
19594;BME280;9944;48.240;16.478;2022-07-15T04:40:41;99852.66;;;20.07;73.59
19594;BME280;9944;48.240;16.478;2022-07-15T04:44:47;99847.41;;;20.04;73.79
19594;BME280;9944;48.240;16.478;2022-07-15T04:48:52;99860.81;;;20.02;73.58
19594;BME280;9944;48.240;16.478;2022-07-15T04:53:12;99874.22;;;20.01;73.11
19594;BME280;9944;48.240;16.478;2022-07-15T04:57:19;99881.31;;;20.02;73.07
19594;BME280;9944;48.240;16.478;2022-07-15T05:01:22;99889.22;;;20.05;73.01
19594;BME280;9944;48.240;16.478;2022-07-15T05:05:31;99893.75;;;20.03;72.71
19594;BME280;9944;48.240;16.478;2022-07-15T05:09:36;99899.84;;;20.06;72.90
19594;BME280;9944;48.240;16.478;2022-07-15T05:13:41;99903.28;;;20.10;72.67
19594;BME280;9944;48.240;16.478;2022-07-15T05:17:44;99900.53;;;20.13;72.51
19594;BME280;9944;48.240;16.478;2022-07-15T05:21:53;99914.66;;;20.17;72.14
19594;BME280;9944;48.240;16.478;2022-07-15T05:25:57;99906.53;;;20.20;71.81
19594;BME280;9944;48.240;16.478;2022-07-15T05:30:02;99903.56;;;20.29;71.89
19594;BME280;9944;48.240;16.478;2022-07-15T05:34:10;99912.91;;;20.42;71.48
19594;BME280;9944;48.240;16.478;2022-07-15T05:38:13;99920.44;;;20.56;71.04
19594;BME280;9944;48.240;16.478;2022-07-15T05:42:17;99933.16;;;20.76;70.46
19594;BME280;9944;48.240;16.478;2022-07-15T05:46:21;99946.97;;;20.89;68.65
19594;BME280;9944;48.240;16.478;2022-07-15T05:50:30;99942.09;;;21.00;68.01
19594;BME280;9944;48.240;16.478;2022-07-15T05:54:35;99932.69;;;21.14;66.38
19594;BME280;9944;48.240;16.478;2022-07-15T05:58:42;99943.03;;;21.23;66.36
19594;BME280;9944;48.240;16.478;2022-07-15T06:02:48;99946.91;;;21.39;65.06
19594;BME280;9944;48.240;16.478;2022-07-15T06:07:01;99956.38;;;21.50;64.69
19594;BME280;9944;48.240;16.478;2022-07-15T06:11:05;99939.13;;;21.57;63.92
19594;BME280;9944;48.240;16.478;2022-07-15T06:15:35;99934.00;;;21.74;62.70
19594;BME280;9944;48.240;16.478;2022-07-15T06:19:41;99942.34;;;21.89;61.54
19594;BME280;9944;48.240;16.478;2022-07-15T06:23:45;99951.06;;;21.94;60.14
19594;BME280;9944;48.240;16.478;2022-07-15T06:27:48;99946.09;;;22.07;59.74
19594;BME280;9944;48.240;16.478;2022-07-15T06:31:51;99945.78;;;22.14;57.58
19594;BME280;9944;48.240;16.478;2022-07-15T06:35:57;99957.06;;;22.23;57.42
19594;BME280;9944;48.240;16.478;2022-07-15T06:40:01;99945.81;;;22.36;56.63
19594;BME280;9944;48.240;16.478;2022-07-15T06:44:06;99958.06;;;22.42;54.46
19594;BME280;9944;48.240;16.478;2022-07-15T06:48:15;99961.56;;;22.44;55.06
19594;BME280;9944;48.240;16.478;2022-07-15T06:52:19;99976.53;;;22.50;54.56
19594;BME280;9944;48.240;16.478;2022-07-15T06:56:23;99973.28;;;22.64;54.70
19594;BME280;9944;48.240;16.478;2022-07-15T07:00:27;99975.44;;;22.76;53.54
19594;BME280;9944;48.240;16.478;2022-07-15T07:04:30;99990.44;;;22.80;51.04
19594;BME280;9944;48.240;16.478;2022-07-15T07:08:35;99989.25;;;22.87;51.82
19594;BME280;9944;48.240;16.478;2022-07-15T07:12:38;99989.00;;;22.93;50.57
19594;BME280;9944;48.240;16.478;2022-07-15T07:16:41;99999.22;;;23.06;51.20
19594;BME280;9944;48.240;16.478;2022-07-15T07:20:44;100003.09;;;23.19;50.32
19594;BME280;9944;48.240;16.478;2022-07-15T07:24:48;100017.06;;;23.27;49.71
19594;BME280;9944;48.240;16.478;2022-07-15T07:28:53;100015.69;;;23.38;49.75
19594;BME280;9944;48.240;16.478;2022-07-15T07:32:56;100012.25;;;23.55;50.27
19594;BME280;9944;48.240;16.478;2022-07-15T07:36:59;100023.69;;;23.79;49.75
19594;BME280;9944;48.240;16.478;2022-07-15T07:41:04;100025.81;;;23.91;49.01
19594;BME280;9944;48.240;16.478;2022-07-15T07:45:11;100025.44;;;23.99;47.67
19594;BME280;9944;48.240;16.478;2022-07-15T07:49:14;100035.84;;;24.06;47.67
19594;BME280;9944;48.240;16.478;2022-07-15T07:53:36;100025.44;;;24.18;45.94
19594;BME280;9944;48.240;16.478;2022-07-15T07:57:48;100038.59;;;24.24;46.14
19594;BME280;9944;48.240;16.478;2022-07-15T08:01:51;100029.50;;;24.27;46.06
19594;BME280;9944;48.240;16.478;2022-07-15T08:05:55;100031.38;;;24.43;46.05
19594;BME280;9944;48.240;16.478;2022-07-15T08:09:58;100035.31;;;24.55;44.43
19594;BME280;9944;48.240;16.478;2022-07-15T08:14:03;100039.66;;;24.58;44.81
19594;BME280;9944;48.240;16.478;2022-07-15T08:18:07;100048.06;;;24.69;45.08
19594;BME280;9944;48.240;16.478;2022-07-15T08:22:10;100037.09;;;24.91;44.87
19594;BME280;9944;48.240;16.478;2022-07-15T08:26:16;100052.91;;;25.15;45.02
19594;BME280;9944;48.240;16.478;2022-07-15T08:30:26;100038.75;;;25.29;44.24
19594;BME280;9944;48.240;16.478;2022-07-15T08:34:30;100042.56;;;25.42;44.14
19594;BME280;9944;48.240;16.478;2022-07-15T08:38:33;100047.44;;;25.51;43.30
19594;BME280;9944;48.240;16.478;2022-07-15T08:42:37;100040.41;;;25.49;41.81
19594;BME280;9944;48.240;16.478;2022-07-15T08:46:46;100036.81;;;25.48;42.12
19594;BME280;9944;48.240;16.478;2022-07-15T08:50:49;100043.09;;;25.49;41.96
19594;BME280;9944;48.240;16.478;2022-07-15T08:54:53;100025.72;;;25.54;41.79
19594;BME280;9944;48.240;16.478;2022-07-15T08:58:56;100034.97;;;25.66;41.71
19594;BME280;9944;48.240;16.478;2022-07-15T09:03:03;100023.53;;;25.79;41.16
19594;BME280;9944;48.240;16.478;2022-07-15T09:07:07;100015.81;;;25.88;41.37
19594;BME280;9944;48.240;16.478;2022-07-15T09:11:10;100012.63;;;25.98;41.40
19594;BME280;9944;48.240;16.478;2022-07-15T09:15:29;100008.44;;;26.08;41.48
19594;BME280;9944;48.240;16.478;2022-07-15T09:19:58;100017.13;;;26.29;40.82
19594;BME280;9944;48.240;16.478;2022-07-15T09:24:15;100015.38;;;26.44;40.81
19594;BME280;9944;48.240;16.478;2022-07-15T09:28:19;100017.97;;;26.45;40.04
19594;BME280;9944;48.240;16.478;2022-07-15T09:32:22;100019.22;;;26.40;39.06
19594;BME280;9944;48.240;16.478;2022-07-15T09:36:45;99997.53;;;26.41;38.65
19594;BME280;9944;48.240;16.478;2022-07-15T09:40:52;100002.00;;;26.42;38.41
19594;BME280;9944;48.240;16.478;2022-07-15T09:45:20;100000.22;;;26.41;39.39
19594;BME280;9944;48.240;16.478;2022-07-15T09:49:34;99991.69;;;26.49;39.89
19594;BME280;9944;48.240;16.478;2022-07-15T09:53:41;99998.13;;;26.62;39.00
19594;BME280;9944;48.240;16.478;2022-07-15T09:57:45;99995.16;;;26.67;39.28
19594;BME280;9944;48.240;16.478;2022-07-15T10:01:48;99994.31;;;26.66;39.02
19594;BME280;9944;48.240;16.478;2022-07-15T10:05:52;99988.63;;;26.55;38.65
19594;BME280;9944;48.240;16.478;2022-07-15T10:09:58;99988.28;;;26.61;38.57
19594;BME280;9944;48.240;16.478;2022-07-15T10:14:33;99991.50;;;26.68;38.69
19594;BME280;9944;48.240;16.478;2022-07-15T10:18:52;99997.41;;;26.75;38.96
19594;BME280;9944;48.240;16.478;2022-07-15T10:23:05;99993.75;;;26.76;38.68
19594;BME280;9944;48.240;16.478;2022-07-15T10:27:25;99985.25;;;26.82;38.93
19594;BME280;9944;48.240;16.478;2022-07-15T10:31:32;99985.31;;;26.96;38.46
19594;BME280;9944;48.240;16.478;2022-07-15T10:35:38;99998.63;;;26.99;38.86
19594;BME280;9944;48.240;16.478;2022-07-15T10:39:52;99998.84;;;27.11;37.91
19594;BME280;9944;48.240;16.478;2022-07-15T10:44:09;99999.44;;;27.16;38.49
19594;BME280;9944;48.240;16.478;2022-07-15T10:48:27;99992.88;;;27.20;37.56
19594;BME280;9944;48.240;16.478;2022-07-15T10:52:31;99998.50;;;27.17;37.86
19594;BME280;9944;48.240;16.478;2022-07-15T10:56:35;99998.66;;;27.14;38.46
19594;BME280;9944;48.240;16.478;2022-07-15T11:00:40;99994.63;;;27.21;38.05
19594;BME280;9944;48.240;16.478;2022-07-15T11:04:44;99982.66;;;27.25;37.88
19594;BME280;9944;48.240;16.478;2022-07-15T11:08:56;99980.84;;;27.26;38.35
19594;BME280;9944;48.240;16.478;2022-07-15T11:13:04;99988.31;;;27.36;37.61
19594;BME280;9944;48.240;16.478;2022-07-15T11:17:10;99982.91;;;27.36;38.31
19594;BME280;9944;48.240;16.478;2022-07-15T11:21:14;99976.53;;;27.52;38.16
19594;BME280;9944;48.240;16.478;2022-07-15T11:25:20;99992.94;;;27.49;37.45
19594;BME280;9944;48.240;16.478;2022-07-15T11:29:23;99982.50;;;27.42;36.49
19594;BME280;9944;48.240;16.478;2022-07-15T11:33:28;99982.31;;;27.46;37.69
19594;BME280;9944;48.240;16.478;2022-07-15T11:37:33;99976.91;;;27.46;37.30
19594;BME280;9944;48.240;16.478;2022-07-15T11:41:36;99976.53;;;27.52;37.97
19594;BME280;9944;48.240;16.478;2022-07-15T11:45:57;99976.59;;;27.65;38.19
19594;BME280;9944;48.240;16.478;2022-07-15T11:50:04;99975.16;;;27.73;37.57
19594;BME280;9944;48.240;16.478;2022-07-15T11:54:12;99985.16;;;27.86;37.73
19594;BME280;9944;48.240;16.478;2022-07-15T11:58:24;99985.75;;;27.91;36.77
19594;BME280;9944;48.240;16.478;2022-07-15T12:02:28;99968.59;;;27.92;36.24
19594;BME280;9944;48.240;16.478;2022-07-15T12:06:33;99978.22;;;27.82;36.03
19594;BME280;9944;48.240;16.478;2022-07-15T12:10:37;99989.84;;;27.69;36.77
19594;BME280;9944;48.240;16.478;2022-07-15T12:14:41;99985.34;;;27.83;36.87
19594;BME280;9944;48.240;16.478;2022-07-15T12:18:45;99978.03;;;27.85;36.04
19594;BME280;9944;48.240;16.478;2022-07-15T12:23:06;99972.63;;;27.99;36.43
19594;BME280;9944;48.240;16.478;2022-07-15T12:27:12;99985.53;;;28.08;35.79
19594;BME280;9944;48.240;16.478;2022-07-15T12:31:24;99973.38;;;28.01;35.48
19594;BME280;9944;48.240;16.478;2022-07-15T12:35:27;99961.50;;;28.04;35.33
19594;BME280;9944;48.240;16.478;2022-07-15T12:39:32;99954.81;;;28.09;35.07
19594;BME280;9944;48.240;16.478;2022-07-15T12:43:46;99955.56;;;28.11;35.23
19594;BME280;9944;48.240;16.478;2022-07-15T12:47:58;99956.97;;;28.04;35.05
19594;BME280;9944;48.240;16.478;2022-07-15T12:52:12;99943.63;;;28.01;35.28
19594;BME280;9944;48.240;16.478;2022-07-15T12:56:16;99928.16;;;28.03;35.32
19594;BME280;9944;48.240;16.478;2022-07-15T13:00:22;99948.09;;;28.02;34.84
19594;BME280;9944;48.240;16.478;2022-07-15T13:04:26;99947.19;;;28.02;34.46
19594;BME280;9944;48.240;16.478;2022-07-15T13:08:31;99937.84;;;27.93;35.11
19594;BME280;9944;48.240;16.478;2022-07-15T13:12:38;99930.50;;;27.95;35.67
19594;BME280;9944;48.240;16.478;2022-07-15T13:16:41;99938.41;;;27.98;34.95
19594;BME280;9944;48.240;16.478;2022-07-15T13:20:45;99924.69;;;28.01;35.68
19594;BME280;9944;48.240;16.478;2022-07-15T13:24:48;99924.06;;;28.10;34.98
19594;BME280;9944;48.240;16.478;2022-07-15T13:28:53;99932.19;;;28.10;34.64
19594;BME280;9944;48.240;16.478;2022-07-15T13:32:56;99942.66;;;28.02;33.79
19594;BME280;9944;48.240;16.478;2022-07-15T13:36:59;99934.84;;;27.97;34.63
19594;BME280;9944;48.240;16.478;2022-07-15T13:41:02;99936.38;;;28.02;33.64
19594;BME280;9944;48.240;16.478;2022-07-15T13:45:09;99930.47;;;28.09;34.09
19594;BME280;9944;48.240;16.478;2022-07-15T13:49:13;99940.16;;;28.26;34.44
19594;BME280;9944;48.240;16.478;2022-07-15T13:53:16;99927.63;;;28.38;34.30
19594;BME280;9944;48.240;16.478;2022-07-15T13:57:19;99926.03;;;28.48;34.46
19594;BME280;9944;48.240;16.478;2022-07-15T14:01:24;99925.25;;;28.33;33.60
19594;BME280;9944;48.240;16.478;2022-07-15T14:05:28;99916.97;;;28.22;33.84
19594;BME280;9944;48.240;16.478;2022-07-15T14:09:32;99924.22;;;28.22;34.15
19594;BME280;9944;48.240;16.478;2022-07-15T14:13:36;99919.38;;;28.27;33.68
19594;BME280;9944;48.240;16.478;2022-07-15T14:17:40;99930.75;;;28.32;33.78
19594;BME280;9944;48.240;16.478;2022-07-15T14:21:43;99915.19;;;28.35;33.34
19594;BME280;9944;48.240;16.478;2022-07-15T14:25:54;99913.41;;;28.22;32.98
19594;BME280;9944;48.240;16.478;2022-07-15T14:29:57;99908.38;;;28.15;33.54
19594;BME280;9944;48.240;16.478;2022-07-15T14:34:11;99918.66;;;28.10;33.00
19594;BME280;9944;48.240;16.478;2022-07-15T14:38:14;99920.41;;;28.11;32.94
19594;BME280;9944;48.240;16.478;2022-07-15T14:42:22;99907.44;;;28.16;33.08
19594;BME280;9944;48.240;16.478;2022-07-15T14:46:25;99903.06;;;28.14;32.98
19594;BME280;9944;48.240;16.478;2022-07-15T14:50:30;99891.59;;;28.10;32.93
19594;BME280;9944;48.240;16.478;2022-07-15T14:54:34;99897.00;;;28.10;32.29
19594;BME280;9944;48.240;16.478;2022-07-15T14:58:37;99900.69;;;28.09;32.17
19594;BME280;9944;48.240;16.478;2022-07-15T15:02:41;99900.91;;;28.06;32.77
19594;BME280;9944;48.240;16.478;2022-07-15T15:06:46;99902.84;;;28.04;32.14
19594;BME280;9944;48.240;16.478;2022-07-15T15:10:49;99889.13;;;28.07;32.25
19594;BME280;9944;48.240;16.478;2022-07-15T15:14:52;99892.03;;;28.04;32.61
19594;BME280;9944;48.240;16.478;2022-07-15T15:18:55;99899.56;;;27.99;32.72
19594;BME280;9944;48.240;16.478;2022-07-15T15:23:00;99899.09;;;27.92;32.62
19594;BME280;9944;48.240;16.478;2022-07-15T15:27:05;99896.66;;;27.88;33.14
19594;BME280;9944;48.240;16.478;2022-07-15T15:31:09;99901.31;;;27.86;33.38
19594;BME280;9944;48.240;16.478;2022-07-15T15:35:12;99894.75;;;27.90;33.38
19594;BME280;9944;48.240;16.478;2022-07-15T15:39:16;99898.03;;;27.80;32.99
19594;BME280;9944;48.240;16.478;2022-07-15T15:43:19;99894.09;;;27.72;33.52
19594;BME280;9944;48.240;16.478;2022-07-15T15:47:22;99897.91;;;27.69;33.59
19594;BME280;9944;48.240;16.478;2022-07-15T15:51:26;99903.03;;;27.59;33.18
19594;BME280;9944;48.240;16.478;2022-07-15T15:55:30;99913.88;;;27.45;32.80
19594;BME280;9944;48.240;16.478;2022-07-15T15:59:33;99904.50;;;27.36;32.69
19594;BME280;9944;48.240;16.478;2022-07-15T16:03:37;99904.97;;;27.29;33.70
19594;BME280;9944;48.240;16.478;2022-07-15T16:07:40;99912.88;;;27.17;33.70
19594;BME280;9944;48.240;16.478;2022-07-15T16:11:45;99908.91;;;27.09;34.59
19594;BME280;9944;48.240;16.478;2022-07-15T16:15:48;99914.69;;;27.02;33.54
19594;BME280;9944;48.240;16.478;2022-07-15T16:19:52;99906.31;;;26.93;34.16
19594;BME280;9944;48.240;16.478;2022-07-15T16:23:55;99908.34;;;26.89;34.55
19594;BME280;9944;48.240;16.478;2022-07-15T16:28:02;99911.50;;;26.81;34.84
19594;BME280;9944;48.240;16.478;2022-07-15T16:32:06;99916.41;;;26.75;34.75
19594;BME280;9944;48.240;16.478;2022-07-15T16:36:10;99904.81;;;26.73;34.86
19594;BME280;9944;48.240;16.478;2022-07-15T16:40:14;99911.28;;;26.70;34.73
19594;BME280;9944;48.240;16.478;2022-07-15T16:44:19;99909.63;;;26.67;34.58
19594;BME280;9944;48.240;16.478;2022-07-15T16:48:22;99912.25;;;26.69;34.80
19594;BME280;9944;48.240;16.478;2022-07-15T16:52:26;99921.41;;;26.66;34.16
19594;BME280;9944;48.240;16.478;2022-07-15T16:56:29;99910.00;;;26.61;34.49
19594;BME280;9944;48.240;16.478;2022-07-15T17:00:34;99920.97;;;26.58;34.24
19594;BME280;9944;48.240;16.478;2022-07-15T17:04:38;99922.09;;;26.54;35.02
19594;BME280;9944;48.240;16.478;2022-07-15T17:08:41;99928.09;;;26.59;34.74
19594;BME280;9944;48.240;16.478;2022-07-15T17:12:45;99929.84;;;26.60;34.88
19594;BME280;9944;48.240;16.478;2022-07-15T17:16:50;99931.75;;;26.58;35.03
19594;BME280;9944;48.240;16.478;2022-07-15T17:20:54;99930.19;;;26.54;34.69
19594;BME280;9944;48.240;16.478;2022-07-15T17:24:57;99923.50;;;26.45;35.13
19594;BME280;9944;48.240;16.478;2022-07-15T17:29:00;99923.91;;;26.39;35.31
19594;BME280;9944;48.240;16.478;2022-07-15T17:33:08;99928.78;;;26.33;34.56
19594;BME280;9944;48.240;16.478;2022-07-15T17:37:27;99925.66;;;26.24;35.12
19594;BME280;9944;48.240;16.478;2022-07-15T17:41:31;99927.75;;;26.19;35.48
19594;BME280;9944;48.240;16.478;2022-07-15T17:45:35;99930.81;;;26.13;35.46
19594;BME280;9944;48.240;16.478;2022-07-15T17:49:40;99927.34;;;26.11;35.84
19594;BME280;9944;48.240;16.478;2022-07-15T17:53:44;99936.56;;;26.07;35.54
19594;BME280;9944;48.240;16.478;2022-07-15T17:57:47;99931.44;;;26.02;35.87
19594;BME280;9944;48.240;16.478;2022-07-15T18:01:50;99939.88;;;25.96;36.03
19594;BME280;9944;48.240;16.478;2022-07-15T18:05:55;99935.69;;;25.90;36.64
19594;BME280;9944;48.240;16.478;2022-07-15T18:09:58;99950.47;;;25.83;36.38
19594;BME280;9944;48.240;16.478;2022-07-15T18:14:02;99940.34;;;25.71;36.36
19594;BME280;9944;48.240;16.478;2022-07-15T18:18:30;99940.03;;;25.61;36.55
19594;BME280;9944;48.240;16.478;2022-07-15T18:22:35;99946.09;;;25.49;36.25
19594;BME280;9944;48.240;16.478;2022-07-15T18:26:38;99944.59;;;25.43;36.81
19594;BME280;9944;48.240;16.478;2022-07-15T18:30:41;99944.94;;;25.37;37.44
19594;BME280;9944;48.240;16.478;2022-07-15T18:34:47;99941.69;;;25.30;37.67
19594;BME280;9944;48.240;16.478;2022-07-15T18:38:52;99941.13;;;25.24;38.00
19594;BME280;9944;48.240;16.478;2022-07-15T18:42:55;99953.19;;;25.16;37.74
19594;BME280;9944;48.240;16.478;2022-07-15T18:46:58;99948.03;;;25.12;37.45
19594;BME280;9944;48.240;16.478;2022-07-15T18:51:02;99956.53;;;25.04;37.71
19594;BME280;9944;48.240;16.478;2022-07-15T18:55:08;99959.72;;;24.95;37.97
19594;BME280;9944;48.240;16.478;2022-07-15T18:59:11;99978.03;;;24.88;38.26
19594;BME280;9944;48.240;16.478;2022-07-15T19:03:15;99980.94;;;24.84;38.61
19594;BME280;9944;48.240;16.478;2022-07-15T19:07:18;99986.66;;;24.77;38.98
19594;BME280;9944;48.240;16.478;2022-07-15T19:11:25;99982.44;;;24.72;38.81
19594;BME280;9944;48.240;16.478;2022-07-15T19:15:28;99989.00;;;24.66;38.87
19594;BME280;9944;48.240;16.478;2022-07-15T19:19:32;100000.97;;;24.60;39.64
19594;BME280;9944;48.240;16.478;2022-07-15T19:23:35;100003.09;;;24.54;39.76
19594;BME280;9944;48.240;16.478;2022-07-15T19:27:40;100007.00;;;24.47;39.88
19594;BME280;9944;48.240;16.478;2022-07-15T19:31:43;100013.78;;;24.36;39.65
19594;BME280;9944;48.240;16.478;2022-07-15T19:35:47;100016.13;;;24.25;40.26
19594;BME280;9944;48.240;16.478;2022-07-15T19:39:50;100019.34;;;24.14;40.00
19594;BME280;9944;48.240;16.478;2022-07-15T19:43:55;100028.84;;;24.02;39.97
19594;BME280;9944;48.240;16.478;2022-07-15T19:47:58;100029.31;;;23.93;40.10
19594;BME280;9944;48.240;16.478;2022-07-15T19:52:02;100036.91;;;23.83;40.25
19594;BME280;9944;48.240;16.478;2022-07-15T19:56:07;100039.94;;;23.76;40.88
19594;BME280;9944;48.240;16.478;2022-07-15T20:00:12;100041.84;;;23.74;41.35
19594;BME280;9944;48.240;16.478;2022-07-15T20:04:19;100052.00;;;23.67;41.23
19594;BME280;9944;48.240;16.478;2022-07-15T20:08:23;100046.88;;;23.61;41.83
19594;BME280;9944;48.240;16.478;2022-07-15T20:12:26;100052.75;;;23.50;41.70
19594;BME280;9944;48.240;16.478;2022-07-15T20:16:31;100061.09;;;23.44;42.57
19594;BME280;9944;48.240;16.478;2022-07-15T20:20:34;100059.47;;;23.40;42.66
19594;BME280;9944;48.240;16.478;2022-07-15T20:24:38;100061.66;;;23.31;42.85
19594;BME280;9944;48.240;16.478;2022-07-15T20:28:42;100056.66;;;23.22;42.75
19594;BME280;9944;48.240;16.478;2022-07-15T20:32:48;100064.19;;;23.14;42.96
19594;BME280;9944;48.240;16.478;2022-07-15T20:36:52;100068.00;;;23.08;43.76
19594;BME280;9944;48.240;16.478;2022-07-15T20:40:56;100065.56;;;23.02;43.72
19594;BME280;9944;48.240;16.478;2022-07-15T20:45:00;100068.50;;;22.96;44.09
19594;BME280;9944;48.240;16.478;2022-07-15T20:49:05;100068.72;;;22.91;44.09
19594;BME280;9944;48.240;16.478;2022-07-15T20:53:09;100072.44;;;22.87;44.04
19594;BME280;9944;48.240;16.478;2022-07-15T20:57:13;100074.44;;;22.82;44.32
19594;BME280;9944;48.240;16.478;2022-07-15T21:01:16;100076.56;;;22.74;44.11
19594;BME280;9944;48.240;16.478;2022-07-15T21:05:21;100084.81;;;22.69;44.15
19594;BME280;9944;48.240;16.478;2022-07-15T21:09:25;100081.44;;;22.64;44.46
19594;BME280;9944;48.240;16.478;2022-07-15T21:13:28;100088.81;;;22.59;44.33
19594;BME280;9944;48.240;16.478;2022-07-15T21:17:31;100088.19;;;22.52;44.42
19594;BME280;9944;48.240;16.478;2022-07-15T21:21:36;100092.78;;;22.49;44.50
19594;BME280;9944;48.240;16.478;2022-07-15T21:25:39;100098.47;;;22.41;44.75
19594;BME280;9944;48.240;16.478;2022-07-15T21:29:59;100095.16;;;22.34;45.04
19594;BME280;9944;48.240;16.478;2022-07-15T21:34:03;100102.59;;;22.26;45.55
19594;BME280;9944;48.240;16.478;2022-07-15T21:38:07;100105.38;;;22.23;45.79